sensor_id;sensor_type;location;lat;lon;timestamp;temperature;humidity
21487;DHT22;10905;50.822;4.336;2023-10-08T00:01:15;17.70;99.90
21487;DHT22;10905;50.822;4.336;2023-10-08T00:03:42;17.80;99.90
21487;DHT22;10905;50.822;4.336;2023-10-08T00:06:18;17.80;99.90
21487;DHT22;10905;50.822;4.336;2023-10-08T00:08:45;17.80;99.90
21487;DHT22;10905;50.822;4.336;2023-10-08T00:11:12;17.70;99.90
21487;DHT22;10905;50.822;4.336;2023-10-08T00:13:38;17.70;99.90
21487;DHT22;10905;50.822;4.336;2023-10-08T00:16:07;17.70;99.90
21487;DHT22;10905;50.822;4.336;2023-10-08T00:18:37;17.60;99.90
21487;DHT22;10905;50.822;4.336;2023-10-08T00:21:04;17.60;99.90
21487;DHT22;10905;50.822;4.336;2023-10-08T00:23:36;17.60;99.90
21487;DHT22;10905;50.822;4.336;2023-10-08T00:26:09;17.50;99.90
21487;DHT22;10905;50.822;4.336;2023-10-08T00:28:34;17.60;99.90
21487;DHT22;10905;50.822;4.336;2023-10-08T00:31:03;17.50;99.90
21487;DHT22;10905;50.822;4.336;2023-10-08T00:33:36;17.50;99.90
21487;DHT22;10905;50.822;4.336;2023-10-08T00:36:02;17.40;99.90
21487;DHT22;10905;50.822;4.336;2023-10-08T00:38:43;17.40;99.90
21487;DHT22;10905;50.822;4.336;2023-10-08T00:41:13;17.50;99.90
21487;DHT22;10905;50.822;4.336;2023-10-08T00:43:40;17.50;99.90
21487;DHT22;10905;50.822;4.336;2023-10-08T00:46:07;17.50;99.90
21487;DHT22;10905;50.822;4.336;2023-10-08T00:48:54;17.60;99.90
21487;DHT22;10905;50.822;4.336;2023-10-08T00:51:25;17.50;99.90
21487;DHT22;10905;50.822;4.336;2023-10-08T00:54:05;17.60;99.90
21487;DHT22;10905;50.822;4.336;2023-10-08T00:56:34;17.50;99.90
21487;DHT22;10905;50.822;4.336;2023-10-08T00:59:33;17.40;99.90
21487;DHT22;10905;50.822;4.336;2023-10-08T01:02:07;17.30;99.90
21487;DHT22;10905;50.822;4.336;2023-10-08T01:04:40;17.20;99.90
21487;DHT22;10905;50.822;4.336;2023-10-08T01:07:10;17.20;99.90
21487;DHT22;10905;50.822;4.336;2023-10-08T01:09:42;17.20;99.90
21487;DHT22;10905;50.822;4.336;2023-10-08T01:12:19;17.10;99.90
21487;DHT22;10905;50.822;4.336;2023-10-08T01:14:52;17.10;99.90
21487;DHT22;10905;50.822;4.336;2023-10-08T01:17:22;17.20;99.90
21487;DHT22;10905;50.822;4.336;2023-10-08T01:19:52;17.20;99.90
21487;DHT22;10905;50.822;4.336;2023-10-08T01:22:37;17.10;99.90
21487;DHT22;10905;50.822;4.336;2023-10-08T01:25:05;17.10;99.90
21487;DHT22;10905;50.822;4.336;2023-10-08T01:27:31;17.00;99.90
21487;DHT22;10905;50.822;4.336;2023-10-08T01:30:00;17.00;99.90
21487;DHT22;10905;50.822;4.336;2023-10-08T01:32:43;17.00;99.90
21487;DHT22;10905;50.822;4.336;2023-10-08T01:35:09;16.90;99.90
21487;DHT22;10905;50.822;4.336;2023-10-08T01:37:51;16.90;99.90
21487;DHT22;10905;50.822;4.336;2023-10-08T01:40:18;16.90;99.90
21487;DHT22;10905;50.822;4.336;2023-10-08T01:42:43;16.80;99.90
21487;DHT22;10905;50.822;4.336;2023-10-08T01:45:09;16.80;99.90
21487;DHT22;10905;50.822;4.336;2023-10-08T01:47:38;16.80;99.90
21487;DHT22;10905;50.822;4.336;2023-10-08T01:50:04;16.90;99.90
21487;DHT22;10905;50.822;4.336;2023-10-08T01:52:34;16.90;99.90
21487;DHT22;10905;50.822;4.336;2023-10-08T01:55:00;16.80;99.90
21487;DHT22;10905;50.822;4.336;2023-10-08T01:57:25;16.80;99.90
21487;DHT22;10905;50.822;4.336;2023-10-08T01:59:51;16.80;99.90
21487;DHT22;10905;50.822;4.336;2023-10-08T02:02:17;16.90;99.90
21487;DHT22;10905;50.822;4.336;2023-10-08T02:04:42;16.70;99.90
21487;DHT22;10905;50.822;4.336;2023-10-08T02:07:09;16.70;99.90
21487;DHT22;10905;50.822;4.336;2023-10-08T02:09:41;16.70;99.90
21487;DHT22;10905;50.822;4.336;2023-10-08T02:12:07;16.70;99.90
21487;DHT22;10905;50.822;4.336;2023-10-08T02:14:33;16.80;99.90
21487;DHT22;10905;50.822;4.336;2023-10-08T02:17:01;16.80;99.90
21487;DHT22;10905;50.822;4.336;2023-10-08T02:19:32;16.80;99.90
21487;DHT22;10905;50.822;4.336;2023-10-08T02:21:58;16.80;99.90
21487;DHT22;10905;50.822;4.336;2023-10-08T02:24:24;16.80;99.90
21487;DHT22;10905;50.822;4.336;2023-10-08T02:26:54;16.80;99.90
21487;DHT22;10905;50.822;4.336;2023-10-08T02:29:25;16.70;99.90
21487;DHT22;10905;50.822;4.336;2023-10-08T02:31:51;16.70;99.90
21487;DHT22;10905;50.822;4.336;2023-10-08T02:34:19;16.80;99.90
21487;DHT22;10905;50.822;4.336;2023-10-08T02:36:46;16.70;99.90
21487;DHT22;10905;50.822;4.336;2023-10-08T02:39:15;16.70;99.90
21487;DHT22;10905;50.822;4.336;2023-10-08T02:41:48;16.60;99.90
21487;DHT22;10905;50.822;4.336;2023-10-08T02:44:14;16.60;99.90
21487;DHT22;10905;50.822;4.336;2023-10-08T02:46:41;16.60;99.90
21487;DHT22;10905;50.822;4.336;2023-10-08T02:49:08;16.60;99.90
21487;DHT22;10905;50.822;4.336;2023-10-08T02:51:37;16.60;99.90
21487;DHT22;10905;50.822;4.336;2023-10-08T02:54:03;16.60;99.90
21487;DHT22;10905;50.822;4.336;2023-10-08T02:56:31;16.70;99.90
21487;DHT22;10905;50.822;4.336;2023-10-08T02:58:58;16.70;99.90
21487;DHT22;10905;50.822;4.336;2023-10-08T03:01:26;16.70;99.90
21487;DHT22;10905;50.822;4.336;2023-10-08T03:03:51;16.80;99.90
21487;DHT22;10905;50.822;4.336;2023-10-08T03:06:28;16.80;99.90
21487;DHT22;10905;50.822;4.336;2023-10-08T03:08:57;16.70;99.90
21487;DHT22;10905;50.822;4.336;2023-10-08T03:11:29;16.70;99.90
21487;DHT22;10905;50.822;4.336;2023-10-08T03:13:56;16.70;99.90
21487;DHT22;10905;50.822;4.336;2023-10-08T03:16:22;16.60;99.90
21487;DHT22;10905;50.822;4.336;2023-10-08T03:18:54;16.50;99.90
21487;DHT22;10905;50.822;4.336;2023-10-08T03:21:22;16.40;99.90
21487;DHT22;10905;50.822;4.336;2023-10-08T03:24:03;16.40;99.90
21487;DHT22;10905;50.822;4.336;2023-10-08T03:26:38;16.30;99.90
21487;DHT22;10905;50.822;4.336;2023-10-08T03:29:05;16.30;99.90
21487;DHT22;10905;50.822;4.336;2023-10-08T03:31:41;16.40;99.90
21487;DHT22;10905;50.822;4.336;2023-10-08T03:34:17;16.50;99.90
21487;DHT22;10905;50.822;4.336;2023-10-08T03:36:45;16.50;99.90
21487;DHT22;10905;50.822;4.336;2023-10-08T03:39:12;16.60;99.90
21487;DHT22;10905;50.822;4.336;2023-10-08T03:41:40;16.50;99.90
21487;DHT22;10905;50.822;4.336;2023-10-08T03:44:07;16.50;99.90
21487;DHT22;10905;50.822;4.336;2023-10-08T03:46:40;16.40;99.90
21487;DHT22;10905;50.822;4.336;2023-10-08T03:49:14;16.40;99.90
21487;DHT22;10905;50.822;4.336;2023-10-08T03:52:00;16.30;99.90
21487;DHT22;10905;50.822;4.336;2023-10-08T03:54:26;16.20;99.90
21487;DHT22;10905;50.822;4.336;2023-10-08T03:57:01;16.10;99.90
21487;DHT22;10905;50.822;4.336;2023-10-08T03:59:29;16.10;99.90
21487;DHT22;10905;50.822;4.336;2023-10-08T04:02:03;16.20;99.90
21487;DHT22;10905;50.822;4.336;2023-10-08T04:05:01;16.10;99.90
21487;DHT22;10905;50.822;4.336;2023-10-08T04:07:43;16.20;99.90
21487;DHT22;10905;50.822;4.336;2023-10-08T04:10:23;16.30;99.90
21487;DHT22;10905;50.822;4.336;2023-10-08T04:13:15;16.30;99.90
21487;DHT22;10905;50.822;4.336;2023-10-08T04:15:42;16.20;99.90
21487;DHT22;10905;50.822;4.336;2023-10-08T04:18:11;16.20;99.90
21487;DHT22;10905;50.822;4.336;2023-10-08T04:20:38;16.20;99.90
21487;DHT22;10905;50.822;4.336;2023-10-08T04:23:06;16.20;99.90
21487;DHT22;10905;50.822;4.336;2023-10-08T04:25:39;16.20;99.90
21487;DHT22;10905;50.822;4.336;2023-10-08T04:28:07;16.20;99.90
21487;DHT22;10905;50.822;4.336;2023-10-08T04:30:38;16.20;99.90
21487;DHT22;10905;50.822;4.336;2023-10-08T04:33:07;16.10;99.90
21487;DHT22;10905;50.822;4.336;2023-10-08T04:35:44;16.10;99.90
21487;DHT22;10905;50.822;4.336;2023-10-08T04:38:14;16.10;99.90
21487;DHT22;10905;50.822;4.336;2023-10-08T04:40:43;16.10;99.90
21487;DHT22;10905;50.822;4.336;2023-10-08T04:43:19;16.00;99.90
21487;DHT22;10905;50.822;4.336;2023-10-08T04:46:03;16.00;99.90
21487;DHT22;10905;50.822;4.336;2023-10-08T04:48:45;16.00;99.90
21487;DHT22;10905;50.822;4.336;2023-10-08T04:51:11;15.90;99.90
21487;DHT22;10905;50.822;4.336;2023-10-08T04:53:38;15.90;99.90
21487;DHT22;10905;50.822;4.336;2023-10-08T04:56:11;16.00;99.90
21487;DHT22;10905;50.822;4.336;2023-10-08T04:58:43;16.10;99.90
21487;DHT22;10905;50.822;4.336;2023-10-08T05:01:17;16.10;99.90
21487;DHT22;10905;50.822;4.336;2023-10-08T05:03:54;16.10;99.90
21487;DHT22;10905;50.822;4.336;2023-10-08T05:06:29;16.10;99.90
21487;DHT22;10905;50.822;4.336;2023-10-08T05:09:09;16.10;99.90
21487;DHT22;10905;50.822;4.336;2023-10-08T05:11:58;16.00;99.90
21487;DHT22;10905;50.822;4.336;2023-10-08T05:14:55;16.00;99.90
21487;DHT22;10905;50.822;4.336;2023-10-08T05:17:21;16.00;99.90
21487;DHT22;10905;50.822;4.336;2023-10-08T05:19:49;16.00;99.90
21487;DHT22;10905;50.822;4.336;2023-10-08T05:22:45;16.10;99.90
21487;DHT22;10905;50.822;4.336;2023-10-08T05:25:21;16.10;99.90
21487;DHT22;10905;50.822;4.336;2023-10-08T05:27:46;16.00;99.90
21487;DHT22;10905;50.822;4.336;2023-10-08T05:30:20;16.00;99.90
21487;DHT22;10905;50.822;4.336;2023-10-08T05:33:08;16.00;99.90
21487;DHT22;10905;50.822;4.336;2023-10-08T05:35:35;16.00;99.90
21487;DHT22;10905;50.822;4.336;2023-10-08T05:38:11;15.90;99.90
21487;DHT22;10905;50.822;4.336;2023-10-08T05:40:55;15.90;99.90
21487;DHT22;10905;50.822;4.336;2023-10-08T05:43:33;15.90;99.90
21487;DHT22;10905;50.822;4.336;2023-10-08T05:46:12;16.00;99.90
21487;DHT22;10905;50.822;4.336;2023-10-08T05:48:54;15.90;99.90
21487;DHT22;10905;50.822;4.336;2023-10-08T05:51:37;15.80;99.90
21487;DHT22;10905;50.822;4.336;2023-10-08T05:54:19;15.70;99.90
21487;DHT22;10905;50.822;4.336;2023-10-08T05:57:02;15.70;99.90
21487;DHT22;10905;50.822;4.336;2023-10-08T05:59:39;15.80;99.90
21487;DHT22;10905;50.822;4.336;2023-10-08T06:02:24;15.80;99.90
21487;DHT22;10905;50.822;4.336;2023-10-08T06:05:07;15.80;99.90
21487;DHT22;10905;50.822;4.336;2023-10-08T06:10:28;15.90;99.90
21487;DHT22;10905;50.822;4.336;2023-10-08T06:15:45;15.90;99.90
21487;DHT22;10905;50.822;4.336;2023-10-08T06:18:39;15.90;99.90
21487;DHT22;10905;50.822;4.336;2023-10-08T06:21:06;16.00;99.90
21487;DHT22;10905;50.822;4.336;2023-10-08T06:23:39;16.00;99.90
21487;DHT22;10905;50.822;4.336;2023-10-08T06:26:05;16.10;99.90
21487;DHT22;10905;50.822;4.336;2023-10-08T06:28:32;16.10;99.90
21487;DHT22;10905;50.822;4.336;2023-10-08T06:31:03;16.20;99.90
21487;DHT22;10905;50.822;4.336;2023-10-08T06:33:32;16.20;99.90
21487;DHT22;10905;50.822;4.336;2023-10-08T06:36:02;16.20;99.90
21487;DHT22;10905;50.822;4.336;2023-10-08T06:38:32;16.30;99.90
21487;DHT22;10905;50.822;4.336;2023-10-08T06:41:03;16.30;99.90
21487;DHT22;10905;50.822;4.336;2023-10-08T06:43:38;16.40;99.90
21487;DHT22;10905;50.822;4.336;2023-10-08T06:46:05;16.40;99.90
21487;DHT22;10905;50.822;4.336;2023-10-08T06:48:33;16.40;99.90
21487;DHT22;10905;50.822;4.336;2023-10-08T06:51:00;16.50;99.90
21487;DHT22;10905;50.822;4.336;2023-10-08T06:53:48;16.50;99.90
21487;DHT22;10905;50.822;4.336;2023-10-08T06:56:17;16.60;99.90
21487;DHT22;10905;50.822;4.336;2023-10-08T06:58:46;16.70;99.90
21487;DHT22;10905;50.822;4.336;2023-10-08T07:01:18;16.70;99.90
21487;DHT22;10905;50.822;4.336;2023-10-08T07:03:47;16.70;99.90
21487;DHT22;10905;50.822;4.336;2023-10-08T07:06:14;16.60;99.90
21487;DHT22;10905;50.822;4.336;2023-10-08T07:08:52;16.60;99.90
21487;DHT22;10905;50.822;4.336;2023-10-08T07:11:21;16.60;99.90
21487;DHT22;10905;50.822;4.336;2023-10-08T07:13:47;16.80;99.90
21487;DHT22;10905;50.822;4.336;2023-10-08T07:16:14;16.80;99.90
21487;DHT22;10905;50.822;4.336;2023-10-08T07:18:43;16.80;99.90
21487;DHT22;10905;50.822;4.336;2023-10-08T07:21:15;16.90;99.90
21487;DHT22;10905;50.822;4.336;2023-10-08T07:23:41;16.90;99.90
21487;DHT22;10905;50.822;4.336;2023-10-08T07:26:23;16.80;99.90
21487;DHT22;10905;50.822;4.336;2023-10-08T07:28:52;17.00;99.90
21487;DHT22;10905;50.822;4.336;2023-10-08T07:31:22;17.10;99.90
21487;DHT22;10905;50.822;4.336;2023-10-08T07:33:55;17.10;99.90
21487;DHT22;10905;50.822;4.336;2023-10-08T07:36:23;17.10;99.90
21487;DHT22;10905;50.822;4.336;2023-10-08T07:38:50;17.30;99.90
21487;DHT22;10905;50.822;4.336;2023-10-08T07:41:16;17.30;99.90
21487;DHT22;10905;50.822;4.336;2023-10-08T07:43:41;17.40;99.90
21487;DHT22;10905;50.822;4.336;2023-10-08T07:46:08;17.40;99.90
21487;DHT22;10905;50.822;4.336;2023-10-08T07:48:35;17.40;99.90
21487;DHT22;10905;50.822;4.336;2023-10-08T07:51:01;17.50;99.90
21487;DHT22;10905;50.822;4.336;2023-10-08T07:53:28;17.40;99.90
21487;DHT22;10905;50.822;4.336;2023-10-08T07:56:06;17.40;99.90
21487;DHT22;10905;50.822;4.336;2023-10-08T07:58:33;17.30;99.90
21487;DHT22;10905;50.822;4.336;2023-10-08T08:01:06;17.40;99.90
21487;DHT22;10905;50.822;4.336;2023-10-08T08:03:33;17.30;99.90
21487;DHT22;10905;50.822;4.336;2023-10-08T08:06:06;17.30;99.90
21487;DHT22;10905;50.822;4.336;2023-10-08T08:08:32;17.30;99.90
21487;DHT22;10905;50.822;4.336;2023-10-08T08:11:05;17.30;99.90
21487;DHT22;10905;50.822;4.336;2023-10-08T08:13:40;17.30;99.90
21487;DHT22;10905;50.822;4.336;2023-10-08T08:16:11;17.40;99.90
21487;DHT22;10905;50.822;4.336;2023-10-08T08:18:47;17.40;99.90
21487;DHT22;10905;50.822;4.336;2023-10-08T08:21:14;17.40;99.90
21487;DHT22;10905;50.822;4.336;2023-10-08T08:23:46;17.40;99.90
21487;DHT22;10905;50.822;4.336;2023-10-08T08:26:23;17.50;99.90
21487;DHT22;10905;50.822;4.336;2023-10-08T08:28:59;17.60;99.90
21487;DHT22;10905;50.822;4.336;2023-10-08T08:31:30;17.70;99.90
21487;DHT22;10905;50.822;4.336;2023-10-08T08:34:02;17.80;99.90
21487;DHT22;10905;50.822;4.336;2023-10-08T08:36:30;17.90;99.90
21487;DHT22;10905;50.822;4.336;2023-10-08T08:38:57;17.90;99.90
21487;DHT22;10905;50.822;4.336;2023-10-08T08:41:23;17.90;99.90
21487;DHT22;10905;50.822;4.336;2023-10-08T08:43:53;18.00;99.90
21487;DHT22;10905;50.822;4.336;2023-10-08T08:46:42;18.10;99.90
21487;DHT22;10905;50.822;4.336;2023-10-08T08:49:08;18.20;99.90
21487;DHT22;10905;50.822;4.336;2023-10-08T08:51:37;18.40;99.90
21487;DHT22;10905;50.822;4.336;2023-10-08T08:54:05;18.50;99.90
21487;DHT22;10905;50.822;4.336;2023-10-08T08:56:35;18.50;99.90
21487;DHT22;10905;50.822;4.336;2023-10-08T08:59:03;18.60;99.90
21487;DHT22;10905;50.822;4.336;2023-10-08T09:01:30;18.70;99.90
21487;DHT22;10905;50.822;4.336;2023-10-08T09:04:01;18.70;99.90
21487;DHT22;10905;50.822;4.336;2023-10-08T09:06:36;18.70;99.90
21487;DHT22;10905;50.822;4.336;2023-10-08T09:09:06;18.70;99.90
21487;DHT22;10905;50.822;4.336;2023-10-08T09:11:59;18.90;99.90
21487;DHT22;10905;50.822;4.336;2023-10-08T09:14:26;18.90;99.90
21487;DHT22;10905;50.822;4.336;2023-10-08T09:16:53;19.00;99.90
21487;DHT22;10905;50.822;4.336;2023-10-08T09:19:21;19.10;99.90
21487;DHT22;10905;50.822;4.336;2023-10-08T09:24:39;19.10;99.90
21487;DHT22;10905;50.822;4.336;2023-10-08T09:29:31;19.10;99.90
21487;DHT22;10905;50.822;4.336;2023-10-08T09:31:58;19.10;99.90
21487;DHT22;10905;50.822;4.336;2023-10-08T09:34:29;19.10;99.90
21487;DHT22;10905;50.822;4.336;2023-10-08T09:36:56;19.10;99.90
21487;DHT22;10905;50.822;4.336;2023-10-08T09:39:24;19.10;99.90
21487;DHT22;10905;50.822;4.336;2023-10-08T09:41:53;19.10;99.90
21487;DHT22;10905;50.822;4.336;2023-10-08T09:44:19;19.10;99.90
21487;DHT22;10905;50.822;4.336;2023-10-08T09:46:51;19.00;99.90
21487;DHT22;10905;50.822;4.336;2023-10-08T09:49:26;19.00;99.90
21487;DHT22;10905;50.822;4.336;2023-10-08T09:51:54;19.00;99.90
21487;DHT22;10905;50.822;4.336;2023-10-08T09:54:29;19.00;99.90
21487;DHT22;10905;50.822;4.336;2023-10-08T09:56:59;19.10;99.90
21487;DHT22;10905;50.822;4.336;2023-10-08T09:59:27;19.20;99.90
21487;DHT22;10905;50.822;4.336;2023-10-08T10:01:55;19.40;99.90
21487;DHT22;10905;50.822;4.336;2023-10-08T10:04:25;19.50;99.90
21487;DHT22;10905;50.822;4.336;2023-10-08T10:06:51;19.60;99.90
21487;DHT22;10905;50.822;4.336;2023-10-08T10:09:22;19.50;99.90
21487;DHT22;10905;50.822;4.336;2023-10-08T10:11:51;19.60;99.90
21487;DHT22;10905;50.822;4.336;2023-10-08T10:14:17;19.70;99.90
21487;DHT22;10905;50.822;4.336;2023-10-08T10:17:05;19.80;99.90
21487;DHT22;10905;50.822;4.336;2023-10-08T10:19:36;19.80;99.90
21487;DHT22;10905;50.822;4.336;2023-10-08T10:22:02;19.80;99.90
21487;DHT22;10905;50.822;4.336;2023-10-08T10:24:38;19.80;99.90
21487;DHT22;10905;50.822;4.336;2023-10-08T10:27:15;19.90;99.90
21487;DHT22;10905;50.822;4.336;2023-10-08T10:29:42;19.80;99.90
21487;DHT22;10905;50.822;4.336;2023-10-08T10:32:14;19.90;99.90
21487;DHT22;10905;50.822;4.336;2023-10-08T10:34:42;19.90;99.90
21487;DHT22;10905;50.822;4.336;2023-10-08T10:37:08;20.10;99.90
21487;DHT22;10905;50.822;4.336;2023-10-08T10:39:57;20.10;99.90
21487;DHT22;10905;50.822;4.336;2023-10-08T10:42:29;20.10;99.90
21487;DHT22;10905;50.822;4.336;2023-10-08T10:44:55;20.20;99.90
21487;DHT22;10905;50.822;4.336;2023-10-08T10:47:24;20.20;99.90
21487;DHT22;10905;50.822;4.336;2023-10-08T10:49:53;20.20;99.90
21487;DHT22;10905;50.822;4.336;2023-10-08T10:52:32;20.20;99.90
21487;DHT22;10905;50.822;4.336;2023-10-08T10:55:07;20.20;99.90
21487;DHT22;10905;50.822;4.336;2023-10-08T10:57:50;20.30;99.90
21487;DHT22;10905;50.822;4.336;2023-10-08T11:00:35;20.40;99.90
21487;DHT22;10905;50.822;4.336;2023-10-08T11:03:02;20.50;99.90
21487;DHT22;10905;50.822;4.336;2023-10-08T11:05:39;20.60;99.90
21487;DHT22;10905;50.822;4.336;2023-10-08T11:08:08;20.50;99.90
21487;DHT22;10905;50.822;4.336;2023-10-08T11:10:36;20.60;99.90
21487;DHT22;10905;50.822;4.336;2023-10-08T11:13:24;20.50;99.90
21487;DHT22;10905;50.822;4.336;2023-10-08T11:16:03;20.50;99.90
21487;DHT22;10905;50.822;4.336;2023-10-08T11:18:29;20.60;99.90
21487;DHT22;10905;50.822;4.336;2023-10-08T11:21:09;20.70;99.90
21487;DHT22;10905;50.822;4.336;2023-10-08T11:23:48;20.80;99.90
21487;DHT22;10905;50.822;4.336;2023-10-08T11:26:36;20.70;99.90
21487;DHT22;10905;50.822;4.336;2023-10-08T11:29:05;20.80;99.90
21487;DHT22;10905;50.822;4.336;2023-10-08T11:31:32;20.90;99.90
21487;DHT22;10905;50.822;4.336;2023-10-08T11:34:02;21.00;99.90
21487;DHT22;10905;50.822;4.336;2023-10-08T11:36:35;21.10;99.90
21487;DHT22;10905;50.822;4.336;2023-10-08T11:39:14;21.20;99.90
21487;DHT22;10905;50.822;4.336;2023-10-08T11:42:04;21.20;99.90
21487;DHT22;10905;50.822;4.336;2023-10-08T11:44:42;21.30;99.90
21487;DHT22;10905;50.822;4.336;2023-10-08T11:47:09;21.40;99.90
21487;DHT22;10905;50.822;4.336;2023-10-08T11:49:40;21.40;99.90
21487;DHT22;10905;50.822;4.336;2023-10-08T11:52:35;21.30;99.90
21487;DHT22;10905;50.822;4.336;2023-10-08T11:55:07;21.20;99.90
21487;DHT22;10905;50.822;4.336;2023-10-08T11:57:33;21.10;99.90
21487;DHT22;10905;50.822;4.336;2023-10-08T12:00:01;21.20;99.90
21487;DHT22;10905;50.822;4.336;2023-10-08T12:02:42;21.40;99.90
21487;DHT22;10905;50.822;4.336;2023-10-08T12:05:09;21.50;99.90
21487;DHT22;10905;50.822;4.336;2023-10-08T12:07:45;21.50;99.90
21487;DHT22;10905;50.822;4.336;2023-10-08T12:10:11;21.60;99.90
21487;DHT22;10905;50.822;4.336;2023-10-08T12:12:37;21.70;99.90
21487;DHT22;10905;50.822;4.336;2023-10-08T12:15:02;21.70;99.90
21487;DHT22;10905;50.822;4.336;2023-10-08T12:17:29;21.70;99.90
21487;DHT22;10905;50.822;4.336;2023-10-08T12:20:05;21.70;99.90
21487;DHT22;10905;50.822;4.336;2023-10-08T12:22:49;21.90;99.90
21487;DHT22;10905;50.822;4.336;2023-10-08T12:25:15;22.10;99.90
21487;DHT22;10905;50.822;4.336;2023-10-08T12:27:40;22.10;99.90
21487;DHT22;10905;50.822;4.336;2023-10-08T12:30:06;22.10;99.90
21487;DHT22;10905;50.822;4.336;2023-10-08T12:32:36;22.20;99.90
21487;DHT22;10905;50.822;4.336;2023-10-08T12:35:05;22.30;99.90
21487;DHT22;10905;50.822;4.336;2023-10-08T12:37:41;22.20;99.90
21487;DHT22;10905;50.822;4.336;2023-10-08T12:40:09;22.20;99.90
21487;DHT22;10905;50.822;4.336;2023-10-08T12:42:48;22.30;99.90
21487;DHT22;10905;50.822;4.336;2023-10-08T12:45:15;22.30;99.90
21487;DHT22;10905;50.822;4.336;2023-10-08T12:47:49;22.30;99.90
21487;DHT22;10905;50.822;4.336;2023-10-08T12:50:19;22.30;99.90
21487;DHT22;10905;50.822;4.336;2023-10-08T12:53:09;22.30;99.90
21487;DHT22;10905;50.822;4.336;2023-10-08T12:55:39;22.40;99.90
21487;DHT22;10905;50.822;4.336;2023-10-08T12:58:06;22.30;99.90
21487;DHT22;10905;50.822;4.336;2023-10-08T13:00:38;22.40;99.90
21487;DHT22;10905;50.822;4.336;2023-10-08T13:03:04;22.60;99.90
21487;DHT22;10905;50.822;4.336;2023-10-08T13:05:49;22.60;99.90
21487;DHT22;10905;50.822;4.336;2023-10-08T13:08:19;22.80;99.90
21487;DHT22;10905;50.822;4.336;2023-10-08T13:10:46;23.00;99.90
21487;DHT22;10905;50.822;4.336;2023-10-08T13:13:12;23.10;99.90
21487;DHT22;10905;50.822;4.336;2023-10-08T13:15:38;23.10;99.90
21487;DHT22;10905;50.822;4.336;2023-10-08T13:18:04;23.10;99.90
21487;DHT22;10905;50.822;4.336;2023-10-08T13:20:30;23.20;99.90
21487;DHT22;10905;50.822;4.336;2023-10-08T13:23:03;23.10;99.90
21487;DHT22;10905;50.822;4.336;2023-10-08T13:25:30;23.20;99.90
21487;DHT22;10905;50.822;4.336;2023-10-08T13:28:04;23.10;99.90
21487;DHT22;10905;50.822;4.336;2023-10-08T13:30:32;23.00;99.90
21487;DHT22;10905;50.822;4.336;2023-10-08T13:32:58;23.10;99.90
21487;DHT22;10905;50.822;4.336;2023-10-08T13:35:25;23.20;99.90
21487;DHT22;10905;50.822;4.336;2023-10-08T13:37:51;23.10;99.90
21487;DHT22;10905;50.822;4.336;2023-10-08T13:40:17;23.10;99.90
21487;DHT22;10905;50.822;4.336;2023-10-08T13:42:43;23.00;99.90
21487;DHT22;10905;50.822;4.336;2023-10-08T13:45:09;23.10;99.90
21487;DHT22;10905;50.822;4.336;2023-10-08T13:47:35;23.20;99.90
21487;DHT22;10905;50.822;4.336;2023-10-08T13:50:01;23.10;99.90
21487;DHT22;10905;50.822;4.336;2023-10-08T13:52:35;23.10;99.90
21487;DHT22;10905;50.822;4.336;2023-10-08T13:55:06;23.00;99.90
21487;DHT22;10905;50.822;4.336;2023-10-08T13:57:32;23.00;99.90
21487;DHT22;10905;50.822;4.336;2023-10-08T13:59:58;23.10;99.90
21487;DHT22;10905;50.822;4.336;2023-10-08T14:02:25;23.10;99.90
21487;DHT22;10905;50.822;4.336;2023-10-08T14:04:51;23.10;99.90
21487;DHT22;10905;50.822;4.336;2023-10-08T14:07:18;23.20;99.90
21487;DHT22;10905;50.822;4.336;2023-10-08T14:09:45;23.30;99.90
21487;DHT22;10905;50.822;4.336;2023-10-08T14:12:14;23.20;99.90
21487;DHT22;10905;50.822;4.336;2023-10-08T14:14:41;23.20;99.90
21487;DHT22;10905;50.822;4.336;2023-10-08T14:17:09;23.10;99.90
21487;DHT22;10905;50.822;4.336;2023-10-08T14:19:40;23.10;99.90
21487;DHT22;10905;50.822;4.336;2023-10-08T14:22:13;23.00;99.90
21487;DHT22;10905;50.822;4.336;2023-10-08T14:24:42;23.10;99.90
21487;DHT22;10905;50.822;4.336;2023-10-08T14:27:10;23.10;99.90
21487;DHT22;10905;50.822;4.336;2023-10-08T14:29:37;23.30;99.90
21487;DHT22;10905;50.822;4.336;2023-10-08T14:32:06;23.30;99.90
21487;DHT22;10905;50.822;4.336;2023-10-08T14:34:37;23.40;99.90
21487;DHT22;10905;50.822;4.336;2023-10-08T14:37:12;23.50;99.90
21487;DHT22;10905;50.822;4.336;2023-10-08T14:39:56;23.40;99.90
21487;DHT22;10905;50.822;4.336;2023-10-08T14:42:40;23.50;99.90
21487;DHT22;10905;50.822;4.336;2023-10-08T14:45:30;23.50;99.90
21487;DHT22;10905;50.822;4.336;2023-10-08T14:48:00;23.50;99.90
21487;DHT22;10905;50.822;4.336;2023-10-08T14:50:27;23.50;99.90
21487;DHT22;10905;50.822;4.336;2023-10-08T14:52:56;23.40;99.90
21487;DHT22;10905;50.822;4.336;2023-10-08T14:55:23;23.60;99.90
21487;DHT22;10905;50.822;4.336;2023-10-08T14:57:52;23.50;99.90
21487;DHT22;10905;50.822;4.336;2023-10-08T15:00:19;23.50;99.90
21487;DHT22;10905;50.822;4.336;2023-10-08T15:02:51;23.60;99.90
21487;DHT22;10905;50.822;4.336;2023-10-08T15:05:19;23.50;99.90
21487;DHT22;10905;50.822;4.336;2023-10-08T15:07:45;23.40;99.90
21487;DHT22;10905;50.822;4.336;2023-10-08T15:10:11;23.50;99.90
21487;DHT22;10905;50.822;4.336;2023-10-08T15:12:39;23.40;99.90
21487;DHT22;10905;50.822;4.336;2023-10-08T15:15:05;23.40;99.90
21487;DHT22;10905;50.822;4.336;2023-10-08T15:17:44;23.40;99.90
21487;DHT22;10905;50.822;4.336;2023-10-08T15:20:12;23.30;99.90
21487;DHT22;10905;50.822;4.336;2023-10-08T15:22:41;23.20;99.90
21487;DHT22;10905;50.822;4.336;2023-10-08T15:25:12;23.00;99.90
21487;DHT22;10905;50.822;4.336;2023-10-08T15:27:39;23.10;99.90
21487;DHT22;10905;50.822;4.336;2023-10-08T15:30:13;23.10;99.90
21487;DHT22;10905;50.822;4.336;2023-10-08T15:32:42;23.00;99.90
21487;DHT22;10905;50.822;4.336;2023-10-08T15:35:11;22.90;99.90
21487;DHT22;10905;50.822;4.336;2023-10-08T15:37:40;23.00;99.90
21487;DHT22;10905;50.822;4.336;2023-10-08T15:40:07;23.00;99.90
21487;DHT22;10905;50.822;4.336;2023-10-08T15:42:34;22.90;99.90
21487;DHT22;10905;50.822;4.336;2023-10-08T15:45:03;22.90;99.90
21487;DHT22;10905;50.822;4.336;2023-10-08T15:47:30;22.90;99.90
21487;DHT22;10905;50.822;4.336;2023-10-08T15:49:57;22.80;99.90
21487;DHT22;10905;50.822;4.336;2023-10-08T15:52:26;22.90;99.90
21487;DHT22;10905;50.822;4.336;2023-10-08T15:54:52;22.90;99.90
21487;DHT22;10905;50.822;4.336;2023-10-08T15:57:18;22.90;99.90
21487;DHT22;10905;50.822;4.336;2023-10-08T15:59:44;23.00;99.90
21487;DHT22;10905;50.822;4.336;2023-10-08T16:02:10;22.90;99.90
21487;DHT22;10905;50.822;4.336;2023-10-08T16:04:35;22.80;99.90
21487;DHT22;10905;50.822;4.336;2023-10-08T16:07:01;22.90;99.90